Home > Products > Valid Products > MTR

000
SAUS41 KLWX 301155
MTRNAK
METAR KNAK 301154Z AUTO 20003KT 9SM SCT010 18/17 A2993 RMK AO2
SLP138 6//// 7//// T01830167 10189 20183 51011 PNO $





000
SAUS41 KLWX 301127
MTRNAK
SPECI KNAK 301126Z AUTO 17005KT 8SM BKN011 18/17 A2993 RMK AO2
T01830167 PNO $





000
SAUS41 KLWX 301101
MTRRSP
METAR KRSP 301054Z AUTO 26006KT 10SM CLR 16/13 RMK AO2 SLPNO
T01560128 $





000
SAUS41 KLWX 301100
MTRRYT
METAR KRYT 301053Z AUTO 00000KT 1/4SM FG VV002 14/13 A2992 RMK AO2
SLP125 T01390133 $





000
SAUS41 KLWX 301059 COR
MTRDMH
METAR KDMH 301054Z AUTO 19/17 A2992 RMK AO1 SLP132 T01890172





000
SAUS41 KLWX 301055
MTRNAK
METAR KNAK 301054Z AUTO 00000KT 10SM 18/17 A2993 RMK AO2 SLP135
T01830167 PNO $





000
SAUS41 KLWX 301042
MTRRYT
SPECI KRYT 301035Z AUTO 00000KT 1/2SM FG VV002 14/13 A2991 RMK AO2 $





000
SAUS41 KLWX 301035
MTRRYT
SPECI KRYT 301028Z AUTO 00000KT 1SM BR VV002 14/13 A2991 RMK AO2 $





000
SAUS41 KLWX 301021
MTRRYT
SPECI KRYT 301014Z AUTO 00000KT 1/2SM FG VV002 14/13 A2991 RMK AO2 $





000
SAUS41 KLWX 301003
MTRRYT
SPECI KRYT 301002Z AUTO 00000KT 1SM BR VV003 14/13 A2990 RMK AO2 VIS
3/4V4 $





000
SAUS41 KLWX 301001
MTRRSP
METAR KRSP 300954Z AUTO 25005KT 10SM CLR 16/13 RMK AO2 SLPNO
T01610128 $





000
SAUS41 KLWX 300959 COR
MTRDMH
METAR KDMH 300954Z AUTO 19/18 A2991 RMK AO1 SLP128 T01890178





000
SAUS41 KLWX 300955
MTRNAK
METAR KNAK 300954Z AUTO 18/17 A2991 RMK AO2 SLP130 T01830172 PNO $





000
SAUS41 KLWX 300901
MTRRSP
METAR KRSP 300854Z AUTO 23004KT 10SM BKN095 OVC110 16/13 RMK AO2
SLPNO T01610133 $





000
SAUS41 KLWX 300900
MTRRYT
METAR KRYT 300853Z AUTO 00000KT 8SM BKN100 16/14 A2990 RMK AO2
SLP116 P0001 60001 T01560144 56006 $





000
SAUS41 KLWX 300859 COR
MTRDMH
METAR KDMH 300854Z AUTO 19/17 A2991 RMK AO1 SLP128 T01890172 55010





000
SAUS41 KLWX 300855
MTRNAK
METAR KNAK 300854Z AUTO 6SM HZ 18/ A2990 RMK AO2 SLP127 T0183 55009
$





000
SAUS41 KLWX 300801
MTRRSP
METAR KRSP 300754Z AUTO 26005KT 10SM FEW095 OVC110 16/14 RMK AO2
SLPNO T01610139 $





000
SAUS41 KLWX 300800
MTRRYT
METAR KRYT 300753Z AUTO 00000KT 5SM BR SCT100 16/14 A2990 RMK AO2
SLP116 T01560144 $





000
SAUS41 KLWX 300800 COR
MTRDMH
METAR KDMH 300754Z AUTO 19/18 A2991 RMK AO1 SLP126 T01890178





000
SAUS41 KLWX 300756
MTRNAK
METAR KNAK 300754Z AUTO 19/17 A2990 RMK AO2 SLP126 T01890172 $





000
SAUS41 KLWX 300744
MTRRYT
SPECI KRYT 300737Z AUTO 00000KT 2SM BR FEW120 16/14 A2990 RMK AO2 $





000
SAUS41 KLWX 300701
MTRRSP
METAR KRSP 300654Z AUTO 25003KT 10SM OVC110 16/13 RMK AO2 SLPNO
T01610133 $





000
SAUS41 KLWX 300700
MTRRYT
METAR KRYT 300653Z AUTO 00000KT 6SM BR BKN110 16/15 A2991 RMK AO2
SLP120 T01610150 $





000
SAUS41 KLWX 300659 COR
MTRDMH
METAR KDMH 300654Z AUTO 19/18 A2991 RMK AO1 SLP129 T01890178





000
SAUS41 KLWX 300656
MTRNAK
METAR KNAK 300654Z AUTO 19/17 A2990 RMK AO2 SLP127 T01890172 $





000
SAUS41 KLWX 300601
MTRRSP
METAR KRSP 300554Z AUTO 26003KT 10SM OVC100 16/14 RMK AO2 RAB43E49
SLPNO P0000 60001 T01610139 10178 20161 $





000
SAUS41 KLWX 300600
MTRRYT
METAR KRYT 300553Z AUTO 00000KT 7SM BKN110 17/16 A2992 RMK AO2
SLP122 T01670156 10189 20167 55008 $





000
SAUS41 KLWX 300558
MTRDMH
METAR KDMH 300554Z AUTO 19/18 A2994 RMK AO1 SLP138 T01940178 10217
20194 55003





000
SAUS41 KLWX 300556
MTRNAK
METAR KNAK 300554Z AUTO 19/17 A2993 RMK AO2 SLP136 6//// T01890172
10200 20189 56007 $





000
SAUS41 KLWX 300501
MTRRSP
METAR KRSP 300454Z AUTO 25005KT 10SM BKN110 17/14 RMK AO2 SLPNO
T01670144 402170161 $





000
SAUS41 KLWX 300500
MTRRYT
METAR KRYT 300453Z AUTO 00000KT 8SM FEW110 17/16 A2991 RMK AO2
SLP121 T01720161 402330144 $





000
SAUS41 KLWX 300459 COR
MTRDMH
METAR KDMH 300454Z AUTO 19/17 A2993 RMK AO1 SLP134 T01940172
402280183





000
SAUS41 KLWX 300456
MTRNAK
METAR KNAK 300454Z AUTO 17004KT 19/17 A2993 RMK AO2 SLP136 T01890172
402220178 PWINO $





000
SAUS41 KLWX 300401
MTRRSP
METAR KRSP 300354Z AUTO 27005KT 10SM OVC110 17/15 RMK AO2 SLPNO
T01670150 $





000
SAUS41 KLWX 300400
MTRRYT
METAR KRYT 300353Z AUTO 00000KT 6SM BR BKN110 17/16 A2993 RMK AO2
SLP127 T01720161 $





000
SAUS41 KLWX 300359 COR
MTRDMH
METAR KDMH 300354Z AUTO 20/17 A2994 RMK AO1 SLP137 T02000172





000
SAUS41 KLWX 300355
MTRNAK
METAR KNAK 300354Z AUTO 00000KT 10SM 19/17 A2994 RMK AO2 SLP140
T01940172 $





000
SAUS41 KLWX 300301
MTRRSP
METAR KRSP 300254Z AUTO 22004KT 10SM OVC100 17/14 RMK AO2 SLPNO
60001 T01720144 $





000
SAUS41 KLWX 300300
MTRRYT
METAR KRYT 300253Z AUTO 00000KT 5SM BR OVC110 17/16 A2994 RMK AO2
SLP132 T01720161 50003 $





000
SAUS41 KLWX 300259 COR
MTRDMH
METAR KDMH 300254Z AUTO 21/18 A2995 RMK AO1 SLP141 T02060178 51001





000
SAUS41 KLWX 300256
MTRNAK
METAR KNAK 300254Z AUTO 19/ A2995 RMK AO2 SLP143 6//// T0194 50002
PWINO $





000
SAUS41 KLWX 300201
MTRRSP
METAR KRSP 300154Z AUTO 00000KT 9SM BKN110 17/15 RMK AO2 RAB0058E41
SLPNO P0001 T01670150 $





000
SAUS41 KLWX 300200
MTRRYT
METAR KRYT 300153Z AUTO 00000KT 7SM BKN090 BKN110 18/16 A2994 RMK
AO2 SLP132 T01780161 $





000
SAUS41 KLWX 300159 COR
MTRDMH
METAR KDMH 300154Z AUTO 21/18 A2995 RMK AO1 SLP141 T02060178





000
SAUS41 KLWX 300155
MTRNAK
METAR KNAK 300154Z AUTO 19/17 A2995 RMK AO2 SLP144 T01940172 PNO $





000
SAUS41 KLWX 300101
MTRRSP
METAR KRSP 300054Z AUTO 25004KT 9SM FEW080 SCT090 BKN120 17/15 RMK
AO2 SLPNO T01720150 $





000
SAUS41 KLWX 300100
MTRRYT
METAR KRYT 300053Z AUTO 00000KT 10SM CLR 18/16 A2994 RMK AO2 SLP133
T01830161 $





000
SAUS41 KLWX 300059 COR
MTRDMH
METAR KDMH 300054Z AUTO 21/17 A2995 RMK AO1 SLP142 T02110172





000
SAUS41 KLWX 300055
MTRNAK
METAR KNAK 300054Z AUTO 00000KT 10SM 20/17 A2995 RMK AO2 SLP142
T02000172 PNO $





000
SAUS41 KLWX 300002 COR
MTRRSP
METAR KRSP 292354Z AUTO 22003KT 9SM FEW120 18/16 RMK AO2 SLPNO
T01780156 10217 20172 $





000
SAUS41 KLWX 300000
MTRRYT
METAR KRYT 292353Z AUTO 00000KT 10SM CLR 19/16 A2993 RMK AO2 SLP130
T01890161 10233 20183 51003 $





000
SAUS41 KLWX 292359 COR
MTRDMH
METAR KDMH 292354Z AUTO 21/17 A2995 RMK AO1 SLP140 T02110167 10222
20211 53004





000
SAUS41 KLWX 292355
MTRNAK
METAR KNAK 292354Z AUTO 00000KT 10SM 20/18 A2994 RMK AO2 SLP141
6//// T02000178 10222 20200 53004 PNO $





000
SAUS41 KLWX 292302 COR
MTRRSP
METAR KRSP 292254Z AUTO 00000KT 9SM CLR 18/16 RMK AO2 SLPNO
T01780156 $





000
SAUS41 KLWX 292300 COR
MTRDMH
METAR KDMH 292254Z AUTO 22/17 A2994 RMK AO1 SLP137 T02170172





000
SAUS41 KLWX 292300
MTRRYT
METAR KRYT 292253Z AUTO 16003KT 10SM CLR 20/16 A2993 RMK AO2 SLP130
T02000161 $





000
SAUS41 KLWX 292255
MTRNAK
METAR KNAK 292254Z AUTO 10SM 21/18 A2993 RMK AO2 SLP137 T02060183 $





000
SAUS41 KLWX 292202 COR
MTRRSP
METAR KRSP 292154Z AUTO 00000KT 10SM BKN120 19/15 RMK AO2 SLPNO
T01890150 $





000
SAUS41 KLWX 292200
MTRRYT
METAR KRYT 292153Z AUTO 00000KT 10SM BKN120 21/17 A2994 RMK AO2
SLP130 T02110167 $





000
SAUS41 KLWX 292159 COR
MTRDMH
METAR KDMH 292154Z AUTO 22/17 A2994 RMK AO1 SLP138 T02170172





000
SAUS41 KLWX 292155
MTRNAK
METAR KNAK 292154Z AUTO 20003KT 10SM 21/18 A2994 RMK AO2 RAB2055E08
SLP140 P0000 T02060183 $





000
SAUS41 KLWX 292103 COR
MTRRSP
METAR KRSP 292054Z AUTO 00000KT 9SM SCT110 19/14 RMK AO2 SLPNO
T01940144 $





000
SAUS41 KLWX 292100 COR
MTRDMH
METAR KDMH 292054Z AUTO 22/16 A2993 RMK AO1 SLP136 T02170161 56012





000
SAUS41 KLWX 292100
MTRRYT
METAR KRYT 292053Z AUTO 00000KT 10SM FEW100 22/17 A2992 RMK AO2
SLP126 T02170167 56014 $





000
SAUS41 KLWX 292055
MTRNAK
METAR KNAK 292054Z AUTO 16005KT 9SM 21/18 A2993 RMK AO2 RAB07RAEMM
SLP137 P0000 60000 T02110183 $





000
SAUS41 KLWX 292002 COR
MTRRSP
METAR KRSP 291954Z AUTO 00000KT 10SM BKN100 20/15 RMK AO2 SLPNO
T02000150 $





000
SAUS41 KLWX 292000
MTRRYT
METAR KRYT 291953Z AUTO 00000KT 10SM BKN110 23/16 A2994 RMK AO2
SLP131 T02280156 $





000
SAUS41 KLWX 291959 COR
MTRDMH
METAR KDMH 291954Z AUTO 22/18 A2994 RMK AO1 SLP136 T02220178





000
SAUS41 KLWX 291955
MTRNAK
METAR KNAK 291954Z AUTO VRB03KT 10SM 21/18 A2994 RMK AO2 RAB22E50
SLP140 P0000 T02110183





000
SAUS41 KLWX 291902 COR
MTRRSP
METAR KRSP 291854Z AUTO 00000KT 7SM FEW020 22/15 RMK AO2 SLPNO
T02170150 $





000
SAUS41 KLWX 291900
MTRRYT
METAR KRYT 291853Z AUTO 00000KT 10SM CLR 23/15 A2995 RMK AO2 SLP132
T02280150 $





000
SAUS41 KLWX 291859 COR
MTRDMH
METAR KDMH 291854Z AUTO 22/18 A2995 RMK AO1 SLP142 T02220178





000
SAUS41 KLWX 291856
MTRNAK
METAR KNAK 291854Z AUTO 00000KT 10SM FEW120 22/17 A2994 RMK AO2
SLP140 T02170172 $





000
SAUS41 KLWX 291802 COR
MTRRSP
METAR KRSP 291754Z AUTO 00000KT 10SM SCT100 21/14 RMK AO2 SLPNO
T02060139 10211 20161 $





000
SAUS41 KLWX 291800
MTRRYT
METAR KRYT 291753Z AUTO 00000KT 10SM CLR 23/14 A2997 RMK AO2 SLP139
T02330144 10233 20161 58013 $





000
SAUS41 KLWX 291759 COR
MTRDMH
METAR KDMH 291754Z AUTO 23/17 A2997 RMK AO1 SLP148 T02280167 10228
20194 58011





000
SAUS41 KLWX 291755
MTRNAK
METAR KNAK 291754Z AUTO 17004KT 10SM CLR 22/17 A2996 RMK AO2 SLP148
T02220172 58014 $





000
SAUS41 KLWX 291702 COR
MTRRSP
METAR KRSP 291654Z AUTO 00000KT 10SM FEW120 20/14 RMK AO2 SLPNO
T02000139 $





000
SAUS41 KLWX 291700
MTRRYT
METAR KRYT 291653Z AUTO 00000KT 10SM CLR 22/15 A2998 RMK AO2 SLP147
T02170150 $





000
SAUS41 KLWX 291659 COR
MTRDMH
METAR KDMH 291654Z AUTO 22/16 A2999 RMK AO1 SLP154 T02220161





000
SAUS41 KLWX 291656
MTRNAK
METAR KNAK 291654Z AUTO 00000KT 10SM CLR 22/16 A2999 RMK AO2 SLP156
T02220161 $





000
SAUS41 KLWX 291602 COR
MTRRSP
METAR KRSP 291554Z AUTO VRB03KT 10SM CLR 19/14 RMK AO2 SLPNO
T01890139 $





000
SAUS41 KLWX 291600
MTRRYT
METAR KRYT 291553Z AUTO 00000KT 10SM CLR 21/15 A3000 RMK AO2 SLP153
T02110150 $





000
SAUS41 KLWX 291559 COR
MTRDMH
METAR KDMH 291554Z AUTO 22/16 A3000 RMK AO1 SLP158 T02220161





000
SAUS41 KLWX 291555
MTRNAK
METAR KNAK 291554Z AUTO 16003KT 10SM 22/17 A3000 RMK AO2 SLP160
T02170167 $





000
SAUS41 KLWX 291502 COR
MTRRSP
METAR KRSP 291454Z AUTO 00000KT 10SM CLR 19/13 RMK AO2 SLPNO
T01940133 $





000
SAUS41 KLWX 291500 COR
MTRDMH
METAR KDMH 291454Z AUTO 22/16 A3000 RMK AO1 SLP158 T02220161 58004





000
SAUS41 KLWX 291500
MTRRYT
METAR KRYT 291453Z AUTO 00000KT 10SM CLR 21/14 A3000 RMK AO2 SLP154
T02060144 56005 $





000
SAUS41 KLWX 291455
MTRNAK
METAR KNAK 291454Z AUTO 10003KT 10SM CLR 20/16 A3000 RMK AO2 SLP162
T02000161 58004





000
SAUS41 KLWX 291402 COR
MTRRSP
METAR KRSP 291354Z AUTO 30004KT 10SM CLR 18/14 RMK AO2 SLPNO
T01830144 $





000
SAUS41 KLWX 291400 COR
MTRDMH
METAR KDMH 291354Z AUTO 22/16 A3000 RMK AO1 SLP160 T02170156





000
SAUS41 KLWX 291400
MTRRYT
METAR KRYT 291353Z AUTO 34003KT 10SM CLR 20/15 A3001 RMK AO2 SLP155
T02000150 $





000
SAUS41 KLWX 291356
MTRNAK
METAR KNAK 291354Z AUTO 00000KT 10SM 19/16 A3001 RMK AO2 SLP163
T01940161 $





000
SAUS41 KLWX 291302 COR
MTRRSP
METAR KRSP 291254Z AUTO 03003KT 10SM CLR 18/14 RMK AO2 SLPNO
T01830139 $





000
SAUS41 KLWX 291300
MTRRYT
METAR KRYT 291253Z AUTO 00000KT 10SM CLR 18/15 A3000 RMK AO2 SLP153
T01830150 $





000
SAUS41 KLWX 291259 COR
MTRDMH
METAR KDMH 291254Z AUTO 20/16 A3001 RMK AO1 SLP162 T02000161





000
SAUS41 KLWX 291255
MTRNAK
METAR KNAK 291254Z AUTO A3001 RMK AO2 SLP166 PWINO $





000
SAUS41 KLWX 291203 COR
MTRDMH
METAR KDMH 291154Z AUTO 19/16 A3001 RMK AO1 SLP162 T01940156 10200
20183 50001





000
SAUS41 KLWX 291203 COR
MTRRSP
METAR KRSP 291154Z AUTO 31005KT 10SM CLR 16/13 RMK AO2 SLPNO
T01610133 10183 20161 $





000
SAUS41 KLWX 291200
MTRRYT
METAR KRYT 291153Z AUTO 00000KT 10SM CLR 16/13 A3002 RMK AO2 SLP160
T01610133 10172 20144 53003 $





000
SAUS41 KLWX 291155
MTRNAK
METAR KNAK 291154Z AUTO A3001 RMK AO2 SLP166 52003 PWINO $





000
SAUS41 KLWX 291102 COR
MTRRSP
METAR KRSP 291054Z AUTO 32003KT 10SM SCT110 17/12 RMK AO2 SLPNO
T01670122 $





000
SAUS41 KLWX 291100
MTRRYT
METAR KRYT 291053Z AUTO 00000KT 10SM CLR 17/13 A3000 RMK AO2 SLP153
T01670133 $





000
SAUS41 KLWX 291059 COR
MTRDMH
METAR KDMH 291054Z AUTO 19/16 A3001 RMK AO1 SLP163 T01940156





000
SAUS41 KLWX 291055
MTRNAK
METAR KNAK 291054Z AUTO A3001 RMK AO2 SLP166 PWINO $





000
SAUS41 KLWX 291002 COR
MTRRSP
METAR KRSP 290954Z AUTO 29003KT 10SM CLR 17/13 RMK AO2 SLPNO
T01670128 $





000
SAUS41 KLWX 291000
MTRRYT
METAR KRYT 290953Z AUTO 00000KT 10SM CLR 16/13 A3000 RMK AO2 SLP152
T01610133 $





000
SAUS41 KLWX 290959 COR
MTRDMH
METAR KDMH 290954Z AUTO 19/16 A3001 RMK AO1 SLP162 T01890156





000
SAUS41 KLWX 290955
MTRNAK
METAR KNAK 290954Z AUTO A3000 RMK AO2 SLP162 PWINO $





000
SAUS41 KLWX 290902 COR
MTRRSP
METAR KRSP 290854Z AUTO 30004KT 10SM CLR 17/12 RMK AO2 SLPNO
T01670122 $





000
SAUS41 KLWX 290900
MTRRYT
METAR KRYT 290853Z AUTO 00000KT 10SM CLR 16/13 A3001 RMK AO2 SLP155
T01560133 56008 $





000
SAUS41 KLWX 290859 COR
MTRDMH
METAR KDMH 290854Z AUTO 19/16 A3001 RMK AO1 SLP161 T01890156 56008





000
SAUS41 KLWX 290856
MTRNAK
METAR KNAK 290854Z AUTO A3000 RMK AO2 SLP162 PWINO $





000
SAUS41 KLWX 290802 COR
MTRRSP
METAR KRSP 290754Z AUTO 27005KT 10SM CLR 18/12 RMK AO2 SLPNO
T01780117 $





000
SAUS41 KLWX 290800 COR
MTRDMH
METAR KDMH 290754Z AUTO 20/16 A3001 RMK AO1 SLP163 T02000156





000
SAUS41 KLWX 290800
MTRRYT
METAR KRYT 290753Z AUTO 22004KT 10SM CLR 15/13 A3001 RMK AO2 SLP155
T01500133 $





000
SAUS41 KLWX 290702 COR
MTRRSP
METAR KRSP 290654Z AUTO 27005KT 10SM CLR 18/12 RMK AO2 SLPNO
T01830117 $





000
SAUS41 KLWX 290700
MTRRYT
METAR KRYT 290653Z AUTO 00000KT 10SM CLR 16/13 A3001 RMK AO2 SLP156
T01610133 $





000
SAUS41 KLWX 290659 COR
MTRDMH
METAR KDMH 290654Z AUTO 19/15 A3001 RMK AO1 SLP163 T01940150





000
SAUS41 KLWX 290656
MTRNAK
METAR KNAK 290654Z AUTO 00000KT 10SM CLR 18/15 A3001 RMK AO2 SLP165
T01780150 $





000
SAUS41 KLWX 290602 COR
MTRRSP
METAR KRSP 290554Z AUTO 26005KT 10SM CLR 18/11 RMK AO2 SLPNO
T01780111 10189 20167 $





000
SAUS41 KLWX 290600
MTRRYT
METAR KRYT 290553Z AUTO 00000KT 10SM CLR 15/13 A3004 RMK AO2 SLP163
T01500133 10172 20150 56010 $





000
SAUS41 KLWX 290559 COR
MTRDMH
METAR KDMH 290554Z AUTO 20/16 A3003 RMK AO1 SLP169 T02000156 10233
20200 56009





000
SAUS41 KLWX 290556
MTRNAK
METAR KNAK 290554Z AUTO 10SM 19/15 A3003 RMK AO2 SLP170 T01890150
10211 20178 $





000
SAUS41 KLWX 290502 COR
MTRRSP
METAR KRSP 290454Z AUTO VRB03KT 10SM CLR 18/12 RMK AO2 SLPNO
T01780117 402280144 $





000
SAUS41 KLWX 290500
MTRRYT
METAR KRYT 290453Z AUTO 00000KT 10SM CLR 15/13 A3004 RMK AO2 SLP165
T01500133 402500117 $





000
SAUS41 KLWX 290459 COR
MTRDMH
METAR KDMH 290454Z AUTO 20/16 A3004 RMK AO1 SLP171 T02000161
402720167





000
SAUS41 KLWX 290456
MTRNAK
METAR KNAK 290454Z AUTO 00000KT CLR 19/16 A3003 RMK AO2 SLP171
T01890161 402440144 PWINO $





000
SAUS41 KLWX 290402 COR
MTRRSP
METAR KRSP 290354Z AUTO 24004KT 10SM CLR 18/12 RMK AO2 SLPNO
T01830117 $





000
SAUS41 KLWX 290400
MTRRYT
METAR KRYT 290353Z AUTO 00000KT 10SM CLR 15/13 A3006 RMK AO2 SLP170
T01500133 $





000
SAUS41 KLWX 290359 COR
MTRDMH
METAR KDMH 290354Z AUTO 21/16 A3004 RMK AO1 SLP174 T02110161





000
SAUS41 KLWX 290356
MTRNAK
METAR KNAK 290354Z AUTO 10SM CLR 19/15 A3004 RMK AO2 SLP174
T01890150 $





000
SAUS41 KLWX 290302 COR
MTRRSP
METAR KRSP 290254Z AUTO 00000KT 10SM CLR 17/12 RMK AO2 SLPNO
T01720122 $





000
SAUS41 KLWX 290300
MTRRYT
METAR KRYT 290253Z AUTO 00000KT 10SM CLR 16/13 A3007 RMK AO2 SLP174
T01560133 58008 $





000
SAUS41 KLWX 290259 COR
MTRDMH
METAR KDMH 290254Z AUTO 22/16 A3006 RMK AO1 SLP178 T02170156 58006





000
SAUS41 KLWX 290255
MTRNAK
METAR KNAK 290254Z AUTO 00000KT 10SM 19/16 A3006 RMK AO2 SLP179
T01940156 58003 $





000
SAUS41 KLWX 290202 COR
MTRRSP
METAR KRSP 290154Z AUTO 26004KT 10SM CLR 19/11 RMK AO2 SLPNO
T01890111 $





000
SAUS41 KLWX 290200
MTRRYT
METAR KRYT 290153Z AUTO 00000KT 10SM CLR 16/14 A3009 RMK AO2 SLP183
T01560139 $





000
SAUS41 KLWX 290159 COR
MTRDMH
METAR KDMH 290154Z AUTO 22/15 A3007 RMK AO1 SLP182 T02220150





000
SAUS41 KLWX 290155
MTRNAK
METAR KNAK 290154Z AUTO 00000KT 19/17 A3006 RMK AO2 SLP182 T01940172
$





000
SAUS41 KLWX 290102 COR
MTRRSP
METAR KRSP 290054Z AUTO 28003KT 10SM CLR 18/12 RMK AO2 SLPNO
T01830117 $





000
SAUS41 KLWX 290100
MTRRYT
METAR KRYT 290053Z AUTO 00000KT 10SM CLR 16/14 A3009 RMK AO2 SLP185
T01610139 $





000
SAUS41 KLWX 290059 COR
MTRDMH
METAR KDMH 290054Z AUTO 23/15 A3008 RMK AO1 SLP185 T02280150





000
SAUS41 KLWX 290055
MTRNAK
METAR KNAK 290054Z AUTO 00000KT 10SM CLR 20/17 A3007 RMK AO2 SLP184
T02000167 $





000
SAUS41 KLWX 290003 COR
MTRRSP
METAR KRSP 282354Z AUTO 31003KT 10SM CLR 18/11 RMK AO2 SLPNO
T01830111 10228 20172 $





000
SAUS41 KLWX 290000
MTRRYT
METAR KRYT 282353Z AUTO 00000KT 10SM CLR 17/14 A3009 RMK AO2 SLP187
T01670144 10250 20167 55000 $





000
SAUS41 KLWX 282359 COR
MTRDMH
METAR KDMH 282354Z AUTO 23/15 A3008 RMK AO1 SLP184 T02330150 10272
20233 53001





000
SAUS41 KLWX 282355
MTRNAK
METAR KNAK 282354Z AUTO 00000KT 10SM 21/17 A3006 RMK AO2 SLP182
T02110172 10244 20211 57003 $





000
SAUS41 KLWX 282302 COR
MTRRSP
METAR KRSP 282254Z AUTO 24003KT 10SM CLR 18/12 RMK AO2 SLPNO
T01830122 $





000
SAUS41 KLWX 282300
MTRRYT
METAR KRYT 282253Z AUTO 00000KT 10SM CLR 18/16 A3008 RMK AO2 SLP184
T01830156 $





000
SAUS41 KLWX 282259 COR
MTRDMH
METAR KDMH 282254Z AUTO 24/16 A3008 RMK AO1 SLP184 T02390156





000
SAUS41 KLWX 282255
MTRNAK
METAR KNAK 282254Z AUTO 22/14 A3007 RMK AO2 SLP183 T02220144 $





000
SAUS41 KLWX 282203 COR
MTRRSP
METAR KRSP 282154Z AUTO 00000KT 10SM CLR 19/13 RMK AO2 SLPNO
T01890133 $





000
SAUS41 KLWX 282200
MTRRYT
METAR KRYT 282153Z AUTO 00000KT 10SM CLR 20/13 A3009 RMK AO2 SLP186
T02000133 $





000
SAUS41 KLWX 282159 COR
MTRDMH
METAR KDMH 282154Z AUTO 24/14 A3007 RMK AO1 SLP183 T02440144





000
SAUS41 KLWX 282156
MTRNAK
METAR KNAK 282154Z AUTO 15005KT 10SM CLR 23/14 A3007 RMK AO2 SLP183
T02330144 $





000
SAUS41 KLWX 282102 COR
MTRRSP
METAR KRSP 282054Z AUTO 00000KT 10SM CLR 20/14 RMK AO2 SLPNO
T02000139 $





000
SAUS41 KLWX 282100
MTRRYT
METAR KRYT 282053Z AUTO 00000KT 10SM CLR 22/14 A3009 RMK AO2 SLP184
T02170144 56016 $





000
SAUS41 KLWX 282058
MTRDMH
METAR KDMH 282054Z AUTO 26/15 A3007 RMK AO1 SLP183 T02560150 56016





000
SAUS41 KLWX 282056
MTRNAK
METAR KNAK 282054Z AUTO 12008KT 10SM CLR 23/18 A3007 RMK AO2 SLP185
T02330178 56017 $





000
SAUS41 KLWX 282002 COR
MTRRSP
METAR KRSP 281954Z AUTO 28003KT 10SM CLR 21/12 RMK AO2 SLPNO
T02110117 $





000
SAUS41 KLWX 282000
MTRRYT
METAR KRYT 281953Z AUTO 00000KT 10SM CLR 23/12 A3010 RMK AO2 SLP186
T02330122 $





000
SAUS41 KLWX 281959 COR
MTRDMH
METAR KDMH 281954Z AUTO 26/16 A3008 RMK AO1 SLP187 T02560156





000
SAUS41 KLWX 281955
MTRNAK
METAR KNAK 281954Z AUTO 12009KT 10SM CLR 24/16 A3008 RMK AO2 SLP188
T02390156 $





000
SAUS41 KLWX 281902 COR
MTRRSP
METAR KRSP 281854Z AUTO 26004KT 10SM CLR 22/10 RMK AO2 SLPNO
T02170100 $





000
SAUS41 KLWX 281900 COR
MTRDMH
METAR KDMH 281854Z AUTO 26/15 A3010 RMK AO1 SLP194 T02610150





000
SAUS41 KLWX 281900
MTRRYT
METAR KRYT 281853Z AUTO 30003KT 10SM CLR 24/13 A3012 RMK AO2 SLP193
T02390133 $





000
SAUS41 KLWX 281855
MTRNAK
METAR KNAK 281854Z AUTO 13009KT 10SM CLR 23/16 A3010 RMK AO2 SLP196
T02280161 $





000
SAUS41 KLWX 281802 COR
MTRRSP
METAR KRSP 281754Z AUTO 26004KT 10SM CLR 22/11 RMK AO2 SLPNO
T02170111 10228 20150 $





000
SAUS41 KLWX 281800
MTRRYT
METAR KRYT 281753Z AUTO 00000KT 10SM CLR 24/14 A3014 RMK AO2 SLP198
T02440139 10244 20117 58015 $





000
SAUS41 KLWX 281759 COR
MTRDMH
METAR KDMH 281754Z AUTO 27/14 A3012 RMK AO1 SLP199 T02670139 10272
20172 58019





000
SAUS41 KLWX 281755
MTRNAK
METAR KNAK 281754Z AUTO 13009KT 10SM CLR 22/17 A3012 RMK AO2 SLP202
T02220167 10228 20156 58018 $





000
SAUS41 KLWX 281702 COR
MTRRSP
METAR KRSP 281654Z AUTO VRB04KT 10SM CLR 21/09 RMK AO2 SLPNO
T02110094 $





000
SAUS41 KLWX 281700 COR
MTRDMH
METAR KDMH 281654Z AUTO 26/14 A3015 RMK AO1 SLP209 T02610139





000
SAUS41 KLWX 281700
MTRRYT
METAR KRYT 281653Z AUTO VRB03KT 10SM CLR 23/14 A3016 RMK AO2 SLP208
T02330144 $





000
SAUS41 KLWX 281655
MTRNAK
METAR KNAK 281654Z AUTO 13008KT 10SM CLR 23/16 A3015 RMK AO2 SLP212
T02280161 $





000
SAUS41 KLWX 281602 COR
MTRRSP
METAR KRSP 281554Z AUTO VRB05KT 10SM CLR 22/11 RMK AO2 SLPNO
T02170106 $





000
SAUS41 KLWX 281600
MTRRYT
METAR KRYT 281553Z AUTO VRB04KT 10SM CLR 23/14 A3017 RMK AO2 SLP209
T02330144 $





000
SAUS41 KLWX 281559 COR
MTRDMH
METAR KDMH 281554Z AUTO 26/14 A3016 RMK AO1 SLP213 T02610139





000
SAUS41 KLWX 281555
MTRNAK
METAR KNAK 281554Z AUTO 12006KT 10SM CLR 22/16 A3016 RMK AO2 SLP216
T02220161 $





000
SAUS41 KLWX 281502 COR
MTRRSP
METAR KRSP 281454Z AUTO 25005KT 10SM CLR 22/12 RMK AO2 SLPNO
T02170117 $





000
SAUS41 KLWX 281500
MTRRYT
METAR KRYT 281453Z AUTO 00000KT 10SM CLR 22/16 A3018 RMK AO2 SLP214
T02170156 58008 $





000
SAUS41 KLWX 281459 COR
MTRDMH
METAR KDMH 281454Z AUTO 24/14 A3018 RMK AO1 SLP218 T02440144 58006





000
SAUS41 KLWX 281455
MTRNAK
METAR KNAK 281454Z AUTO 13006KT 9SM CLR 21/17 A3018 RMK AO2 SLP220
T02110172 58005 $





000
SAUS41 KLWX 281402 COR
MTRRSP
METAR KRSP 281354Z AUTO 00000KT 10SM CLR 21/11 RMK AO2 SLPNO
T02060111 $





000
SAUS41 KLWX 281400
MTRRYT
METAR KRYT 281353Z AUTO 00000KT 10SM CLR 19/14 A3019 RMK AO2 SLP219
T01890144 $





000
SAUS41 KLWX 281359 COR
MTRDMH
METAR KDMH 281354Z AUTO 22/14 A3019 RMK AO1 SLP222 T02170139





000
SAUS41 KLWX 281355
MTRNAK
METAR KNAK 281354Z AUTO 00000KT 10SM CLR 21/17 A3019 RMK AO2 SLP223
T02110167 $





000
SAUS41 KLWX 281302 COR
MTRRSP
METAR KRSP 281254Z AUTO 00000KT 10SM CLR 17/13 RMK AO2 SLPNO
T01720128 $





000
SAUS41 KLWX 281300
MTRRYT
METAR KRYT 281253Z AUTO 00000KT 10SM CLR 14/13 A3020 RMK AO2 SLP225
T01440133 $





000
SAUS41 KLWX 281259 COR
MTRDMH
METAR KDMH 281254Z AUTO 19/13 A3019 RMK AO1 SLP224 T01940133





000
SAUS41 KLWX 281255
MTRNAK
METAR KNAK 281254Z AUTO 00000KT 10SM CLR 19/16 A3019 RMK AO2 SLP225
T01890161 $





000
SAUS41 KLWX 281202 COR
MTRRSP
METAR KRSP 281154Z AUTO 00000KT 10SM CLR 16/12 RMK AO2 SLPNO
T01560117 10172 20144 $





000
SAUS41 KLWX 281200
MTRRYT
METAR KRYT 281153Z AUTO 00000KT 6SM BR CLR 12/11 A3021 RMK AO2
SLP228 70001 T01170111 10133 20117 53003 $





000
SAUS41 KLWX 281159 COR
MTRDMH
METAR KDMH 281154Z AUTO 17/13 A3019 RMK AO1 SLP224 T01720128 10189
20167 53002





000
SAUS41 KLWX 281155
MTRNAK
METAR KNAK 281154Z AUTO 00000KT 9SM CLR 16/14 A3019 RMK AO2 SLP225
T01560144 10161 20144 53004 $





000
SAUS41 KLWX 281102 COR
MTRRSP
METAR KRSP 281054Z AUTO 28003KT 10SM CLR 15/11 RMK AO2 SLPNO
T01500111 $





000
SAUS41 KLWX 281100
MTRRYT
METAR KRYT 281053Z AUTO 00000KT 10SM CLR 12/12 A3020 RMK AO2 SLP223
T01220117 $





000
SAUS41 KLWX 281100 COR
MTRDMH
METAR KDMH 281054Z AUTO 17/13 A3019 RMK AO1 SLP224 T01720128





000
SAUS41 KLWX 281055
MTRNAK
METAR KNAK 281054Z AUTO 00000KT 8SM CLR 15/14 A3019 RMK AO2 SLP224
T01500139 $





000
SAUS41 KLWX 281002 COR
MTRRSP
METAR KRSP 280954Z AUTO 00000KT 10SM CLR 16/11 RMK AO2 SLPNO
T01560111 $





000
SAUS41 KLWX 281000
MTRRYT
METAR KRYT 280953Z AUTO 00000KT 9SM CLR 12/11 A3020 RMK AO2 SLP219
T01220111 $





000
SAUS41 KLWX 281000 COR
MTRDMH
METAR KDMH 280954Z AUTO 17/13 A3019 RMK AO1 SLP221 T01720133





000
SAUS41 KLWX 280955
MTRNAK
METAR KNAK 280954Z AUTO 00000KT 7SM CLR 15/14 A3018 RMK AO2 SLP221
T01500144 $





000
SAUS41 KLWX 280902 COR
MTRRSP
METAR KRSP 280854Z AUTO 27003KT 10SM CLR 16/11 RMK AO2 SLPNO
T01560111 $





000
SAUS41 KLWX 280900
MTRRYT
METAR KRYT 280853Z AUTO 00000KT 10SM CLR 13/12 A3020 RMK AO2 SLP218
T01280117 55004 $





000
SAUS41 KLWX 280859 COR
MTRDMH
METAR KDMH 280854Z AUTO 18/13 A3019 RMK AO1 SLP222 T01780133 55003





000
SAUS41 KLWX 280855
MTRNAK
METAR KNAK 280854Z AUTO 00000KT 9SM CLR 16/15 A3018 RMK AO2 SLP220
T01560150 55004





000
SAUS41 KLWX 280802 COR
MTRRSP
METAR KRSP 280754Z AUTO 27005KT 10SM CLR 16/12 RMK AO2 SLPNO
T01560117 $





000
SAUS41 KLWX 280800
MTRRYT
METAR KRYT 280753Z AUTO 00000KT 10SM CLR 12/11 A3019 RMK AO2 SLP218
T01220111 $





000
SAUS41 KLWX 280759 COR
MTRDMH
METAR KDMH 280754Z AUTO 18/14 A3018 RMK AO1 SLP220 T01780139





000
SAUS41 KLWX 280755
MTRNAK
METAR KNAK 280754Z AUTO 00000KT 9SM CLR 16/15 A3017 RMK AO2 SLP219
T01610150





000
SAUS41 KLWX 280702 COR
MTRRSP
METAR KRSP 280654Z AUTO VRB03KT 10SM CLR 17/11 RMK AO2 SLPNO
T01720111 $





000
SAUS41 KLWX 280700
MTRRYT
METAR KRYT 280653Z AUTO 00000KT 10SM CLR 13/12 A3020 RMK AO2 SLP220
T01280117 $





000
SAUS41 KLWX 280659 COR
MTRDMH
METAR KDMH 280654Z AUTO 18/14 A3019 RMK AO1 SLP222 T01780139





000
SAUS41 KLWX 280656
MTRNAK
METAR KNAK 280654Z AUTO 00000KT 9SM CLR 16/15 A3018 RMK AO2 SLP221
T01610150





000
SAUS41 KLWX 280602 COR
MTRRSP
METAR KRSP 280554Z AUTO 26004KT 10SM CLR 16/11 RMK AO2 SLPNO
T01610111 10189 20156 $





000
SAUS41 KLWX 280600 COR
MTRDMH
METAR KDMH 280554Z AUTO 19/13 A3020 RMK AO1 SLP225 T01890133 10233
20183 55000





000
SAUS41 KLWX 280600
MTRRYT
METAR KRYT 280553Z AUTO 00000KT 10SM CLR 13/12 A3021 RMK AO2 SLP223
T01330117 10161 20122 55004 $





000
SAUS41 KLWX 280556
MTRNAK
METAR KNAK 280554Z AUTO 00000KT 9SM CLR 16/15 A3019 RMK AO2 SLP224
T01610150 10200 20156 55002





000
SAUS41 KLWX 280502 COR
MTRRSP
METAR KRSP 280454Z AUTO 26004KT 10SM CLR 16/11 RMK AO2 SLPNO
T01560106 402390128 $





000
SAUS41 KLWX 280500
MTRRYT
METAR KRYT 280453Z AUTO 00000KT 10SM CLR 12/12 A3020 RMK AO2 SLP222
T01220117 402610106 $





000
SAUS41 KLWX 280459 COR
MTRDMH
METAR KDMH 280454Z AUTO 19/14 A3019 RMK AO1 SLP223 T01940139
402720172





000
SAUS41 KLWX 280456
MTRNAK
METAR KNAK 280454Z AUTO 00000KT 8SM CLR 17/15 A3018 RMK AO2 SLP221
T01670150 402560144





000
SAUS41 KLWX 280402 COR
MTRRSP
METAR KRSP 280354Z AUTO 22005KT 10SM CLR 17/11 RMK AO2 SLPNO
T01720106 $





000
SAUS41 KLWX 280400
MTRRYT
METAR KRYT 280353Z AUTO 00000KT 10SM CLR 13/12 A3021 RMK AO2 SLP225
T01280117 $





000
SAUS41 KLWX 280359 COR
MTRDMH
METAR KDMH 280354Z AUTO 20/14 A3020 RMK AO1 SLP225 T02000144





000
SAUS41 KLWX 280355
MTRNAK
METAR KNAK 280354Z AUTO 00000KT 9SM CLR 17/16 A3019 RMK AO2 SLP224
T01670156





000
SAUS41 KLWX 280302 COR
MTRRSP
METAR KRSP 280254Z AUTO 17006KT 10SM CLR 18/11 RMK AO2 SLPNO
T01780106 $





000
SAUS41 KLWX 280300 COR
MTRDMH
METAR KDMH 280254Z AUTO 21/14 A3020 RMK AO1 SLP225 T02110144 53003





000
SAUS41 KLWX 280300
MTRRYT
METAR KRYT 280253Z AUTO 00000KT 10SM CLR 14/12 A3022 RMK AO2 SLP228
T01390122 53004 $





000
SAUS41 KLWX 280255
MTRNAK
METAR KNAK 280254Z AUTO 00000KT 9SM CLR 17/16 A3019 RMK AO2 SLP226
T01720156 53004





000
SAUS41 KLWX 280202 COR
MTRRSP
METAR KRSP 280154Z AUTO 13003KT 10SM CLR 17/12 RMK AO2 SLPNO
T01720117 $





000
SAUS41 KLWX 280200
MTRRYT
METAR KRYT 280153Z AUTO 00000KT 10SM CLR 14/13 A3022 RMK AO2 SLP228
T01390128 $





000
SAUS41 KLWX 280159 COR
MTRDMH
METAR KDMH 280154Z AUTO 22/14 A3019 RMK AO1 SLP223 T02170144





000
SAUS41 KLWX 280155
MTRNAK
METAR KNAK 280154Z AUTO 00000KT 10SM CLR 18/16 A3019 RMK AO2 SLP224
T01780156





000
SAUS41 KLWX 280102 COR
MTRRSP
METAR KRSP 280054Z AUTO 07004KT 10SM CLR 17/12 RMK AO2 SLPNO
T01720117 $





000
SAUS41 KLWX 280100
MTRRYT
METAR KRYT 280053Z AUTO 00000KT 10SM CLR 15/13 A3021 RMK AO2 SLP226
T01500133 $





000
SAUS41 KLWX 280055
MTRNAK
METAR KNAK 280054Z AUTO 00000KT 10SM CLR 19/16 A3018 RMK AO2 SLP223
T01890161





000
SAUS41 KLWX 280002 COR
MTRRSP
METAR KRSP 272354Z AUTO 08003KT 10SM CLR 18/12 RMK AO2 SLPNO
T01830117 10239 20183 $





000
SAUS41 KLWX 280000
MTRRYT
METAR KRYT 272353Z AUTO 00000KT 10SM CLR 16/14 A3021 RMK AO2 SLP228
T01610139 10261 20161 53001 $





000
SAUS41 KLWX 272359 COR
MTRDMH
METAR KDMH 272354Z AUTO 23/13 A3019 RMK AO1 SLP222 T02330133 10272
20233 53000





000
SAUS41 KLWX 272355
MTRNAK
METAR KNAK 272354Z AUTO 00000KT 10SM CLR 19/16 A3018 RMK AO2 SLP222
T01940161 10256 20194 55003





000
SAUS41 KLWX 272302 COR
MTRRSP
METAR KRSP 272254Z AUTO 09003KT 10SM CLR 19/12 RMK AO2 SLPNO
T01890117 $





000
SAUS41 KLWX 272300
MTRRYT
METAR KRYT 272253Z AUTO 00000KT 10SM CLR 19/14 A3020 RMK AO2 SLP223
T01940139 $





000
SAUS41 KLWX 272259 COR
MTRDMH
METAR KDMH 272254Z AUTO 24/13 A3018 RMK AO1 SLP220 T02440133





000
SAUS41 KLWX 272255
MTRNAK
METAR KNAK 272254Z AUTO 10SM 22/13 A3018 RMK AO2 SLP221 T02170133 $





000
SAUS41 KLWX 272202 COR
MTRRSP
METAR KRSP 272154Z AUTO 00000KT 10SM CLR 22/12 RMK AO2 SLPNO
T02220117 $





000
SAUS41 KLWX 272200
MTRRYT
METAR KRYT 272153Z AUTO 00000KT 10SM CLR 23/14 A3020 RMK AO2 SLP220
T02280144 $





000
SAUS41 KLWX 272200 COR
MTRDMH
METAR KDMH 272154Z AUTO 25/13 A3018 RMK AO1 SLP219 T02500133





000
SAUS41 KLWX 272156
MTRNAK
METAR KNAK 272154Z AUTO 02003KT 10SM CLR 25/13 A3018 RMK AO2 SLP220
T02500128 $





000
SAUS41 KLWX 272102 COR
MTRRSP
METAR KRSP 272054Z AUTO 00000KT 10SM CLR 23/11 RMK AO2 SLPNO
T02330111 $





000
SAUS41 KLWX 272100
MTRRYT
METAR KRYT 272053Z AUTO 00000KT 10SM CLR 25/13 A3020 RMK AO2 SLP222
T02500133 58010 $





000
SAUS41 KLWX 272059 COR
MTRDMH
METAR KDMH 272054Z AUTO 26/13 A3019 RMK AO1 SLP222 T02610133 56009





000
SAUS41 KLWX 272056
MTRNAK
METAR KNAK 272054Z AUTO 05006KT 10SM CLR 26/11 A3019 RMK AO2 SLP225
T02560111 56009 $





000
SAUS41 KLWX 272002 COR
MTRRSP
METAR KRSP 271954Z AUTO 00000KT 10SM CLR 23/12 RMK AO2 SLPNO
T02330117 $





000
SAUS41 KLWX 272000
MTRRYT
METAR KRYT 271953Z AUTO 00000KT 10SM CLR 26/11 A3022 RMK AO2 SLP227
T02560111 $





000
SAUS41 KLWX 271959 COR
MTRDMH
METAR KDMH 271954Z AUTO 26/13 A3019 RMK AO1 SLP224 T02610128





000
SAUS41 KLWX 271955
MTRNAK
METAR KNAK 271954Z AUTO 05006KT 10SM CLR 26/12 A3020 RMK AO2 SLP228
T02560122 $





000
SAUS41 KLWX 271902 COR
MTRRSP
METAR KRSP 271854Z AUTO 00000KT 10SM CLR 23/12 RMK AO2 SLPNO
T02330117 $





000
SAUS41 KLWX 271900
MTRRYT
METAR KRYT 271853Z AUTO VRB03KT 10SM CLR 25/11 A3022 RMK AO2 SLP227
T02500111 $





000
SAUS41 KLWX 271859 COR
MTRDMH
METAR KDMH 271854Z AUTO 27/12 A3020 RMK AO1 SLP224 T02720122





000
SAUS41 KLWX 271855
MTRNAK
METAR KNAK 271854Z AUTO VRB05KT 10SM 25/12 A3021 RMK AO2 SLP231
T02500117 $





000
SAUS41 KLWX 271802 COR
MTRRSP
METAR KRSP 271754Z AUTO 00000KT 10SM CLR 23/11 RMK AO2 SLPNO
T02280111 10228 20139 $





000
SAUS41 KLWX 271800
MTRRYT
METAR KRYT 271753Z AUTO 03003KT 10SM CLR 24/12 A3023 RMK AO2 SLP232
60001 T02440117 10244 20106 58010 $





000
SAUS41 KLWX 271759 COR
MTRDMH
METAR KDMH 271754Z AUTO 26/13 A3021 RMK AO1 SLP231 T02610128 10267
20178 58010





000
SAUS41 KLWX 271756
MTRNAK
METAR KNAK 271754Z AUTO 03003KT 10SM CLR 25/12 A3022 RMK AO2 SLP234
T02500117 10250 20172 58008 $





000
SAUS41 KLWX 271702 COR
MTRRSP
METAR KRSP 271654Z AUTO 00000KT 10SM CLR 22/11 RMK AO2 SLPNO
T02170106 $





000
SAUS41 KLWX 271700 COR
MTRDMH
METAR KDMH 271654Z AUTO 26/13 A3023 RMK AO1 SLP237 T02560128





000
SAUS41 KLWX 271700
MTRRYT
METAR KRYT 271653Z AUTO 00000KT 10SM CLR 23/12 A3026 RMK AO2 SLP240
T02330117 $





000
SAUS41 KLWX 271656
MTRNAK
METAR KNAK 271654Z AUTO 10SM CLR 24/13 A3024 RMK AO2 SLP240
T02440128





000
SAUS41 KLWX 271602 COR
MTRRSP
METAR KRSP 271554Z AUTO 00000KT 10SM CLR 21/12 RMK AO2 SLPNO
T02060122 $





000
SAUS41 KLWX 271600
MTRRYT
METAR KRYT 271553Z AUTO 00000KT 10SM CLR 23/13 A3026 RMK AO2 SLP242
T02280128 $





000
SAUS41 KLWX 271559 COR
MTRDMH
METAR KDMH 271554Z AUTO 25/12 A3024 RMK AO1 SLP240 T02500122





000
SAUS41 KLWX 271555
MTRNAK
METAR KNAK 271554Z AUTO 06008KT 10SM CLR 23/14 A3025 RMK AO2 SLP244
T02330139





000
SAUS41 KLWX 271502 COR
MTRRSP
METAR KRSP 271454Z AUTO 00000KT 10SM CLR 20/13 RMK AO2 SLPNO
T02000133 $





000
SAUS41 KLWX 271500
MTRRYT
METAR KRYT 271453Z AUTO 00000KT 10SM CLR 21/14 A3027 RMK AO2 SLP244
60001 T02060139 50003 $





000
SAUS41 KLWX 271459 COR
MTRDMH
METAR KDMH 271454Z AUTO 25/13 A3024 RMK AO1 SLP241 T02500128 50002





000
SAUS41 KLWX 271455
MTRNAK
METAR KNAK 271454Z AUTO 04004KT 10SM CLR 23/13 A3024 RMK AO2 SLP243
T02280133 50004





000
SAUS41 KLWX 271402 COR
MTRRSP
METAR KRSP 271354Z AUTO 01003KT 10SM CLR 18/12 RMK AO2 SLPNO
T01780122 $





000
SAUS41 KLWX 271400
MTRRYT
METAR KRYT 271353Z AUTO 00000KT 10SM CLR 18/14 A3027 RMK AO2 SLP247
P0001 T01830139 $





000
SAUS41 KLWX 271359 COR
MTRDMH
METAR KDMH 271354Z AUTO 22/13 A3025 RMK AO1 SLP242 T02170128





000
SAUS41 KLWX 271355
MTRNAK
METAR KNAK 271354Z AUTO 35004KT 10SM CLR 21/14 A3024 RMK AO2 SLP243
T02060144





000
SAUS41 KLWX 271302 COR
MTRRSP
METAR KRSP 271254Z AUTO VRB03KT 10SM CLR 16/12 RMK AO2 SLPNO
T01610117 $





000
SAUS41 KLWX 271300
MTRRYT
METAR KRYT 271253Z AUTO 00000KT 10SM CLR 14/13 A3027 RMK AO2 SLP248
T01440128 $





000
SAUS41 KLWX 271259 COR
MTRDMH
METAR KDMH 271254Z AUTO 19/12 A3025 RMK AO1 SLP241 T01940122





000
SAUS41 KLWX 271255
MTRNAK
METAR KNAK 271254Z AUTO 35005KT 10SM CLR 18/13 A3024 RMK AO2 SLP242
T01830133





000
SAUS41 KLWX 271202 COR
MTRRSP
METAR KRSP 271154Z AUTO 06005KT 10SM CLR 14/11 RMK AO2 SLPNO
T01440111 10150 20128 $





000
SAUS41 KLWX 271200
MTRRYT
METAR KRYT 271153Z AUTO 00000KT 6SM BR CLR 11/10 A3026 RMK AO2
SLP246 T01060100 10117 20106 53007 $





    US Dept of Commerce
    National Oceanic and Atmospheric Administration
    National Weather Service
    1325 East West Highway
    Silver Spring, MD 20910
    Page Author: NWS Internet Services Team
Disclaimer
Information Quality
Credits
Glossary
Privacy Policy
Freedom of Information Act (FOIA)
About Us
Career Opportunities